sensor_id;sensor_type;location;lat;lon;timestamp;P1;durP1;ratioP1;P2;durP2;ratioP2
61385;SDS011;47256;18.904;-99.054;2023-03-17T00:01:25;1.73;;;1.02;;
61385;SDS011;47256;18.904;-99.054;2023-03-17T00:03:57;2.47;;;1.30;;
61385;SDS011;47256;18.904;-99.054;2023-03-17T00:06:25;2.97;;;1.90;;
61385;SDS011;47256;18.904;-99.054;2023-03-17T00:08:55;27.77;;;2.20;;
61385;SDS011;47256;18.904;-99.054;2023-03-17T00:11:23;1.77;;;0.88;;
61385;SDS011;47256;18.904;-99.054;2023-03-17T00:13:52;2.65;;;0.90;;
61385;SDS011;47256;18.904;-99.054;2023-03-17T00:16:20;1.40;;;1.02;;
61385;SDS011;47256;18.904;-99.054;2023-03-17T00:18:55;0.93;;;0.77;;
61385;SDS011;47256;18.904;-99.054;2023-03-17T00:21:27;1.52;;;1.23;;
61385;SDS011;47256;18.904;-99.054;2023-03-17T00:24:00;0.93;;;0.60;;
61385;SDS011;47256;18.904;-99.054;2023-03-17T00:26:28;6.97;;;1.15;;
61385;SDS011;47256;18.904;-99.054;2023-03-17T00:28:56;1.55;;;1.00;;
61385;SDS011;47256;18.904;-99.054;2023-03-17T00:31:26;0.82;;;0.57;;
61385;SDS011;47256;18.904;-99.054;2023-03-17T00:33:58;2.85;;;1.35;;
61385;SDS011;47256;18.904;-99.054;2023-03-17T00:36:26;1.00;;;0.90;;
61385;SDS011;47256;18.904;-99.054;2023-03-17T00:38:56;1.08;;;0.98;;
61385;SDS011;47256;18.904;-99.054;2023-03-17T00:41:24;4.97;;;1.20;;
61385;SDS011;47256;18.904;-99.054;2023-03-17T00:44:04;2.13;;;0.90;;
61385;SDS011;47256;18.904;-99.054;2023-03-17T00:46:32;2.72;;;1.10;;
61385;SDS011;47256;18.904;-99.054;2023-03-17T00:51:46;2.70;;;1.63;;
61385;SDS011;47256;18.904;-99.054;2023-03-17T00:54:18;77.55;;;4.78;;
61385;SDS011;47256;18.904;-99.054;2023-03-17T00:56:48;5.32;;;1.33;;
61385;SDS011;47256;18.904;-99.054;2023-03-17T00:59:19;6.70;;;1.73;;
61385;SDS011;47256;18.904;-99.054;2023-03-17T01:01:54;5.38;;;2.25;;
61385;SDS011;47256;18.904;-99.054;2023-03-17T01:04:27;2.60;;;1.40;;
61385;SDS011;47256;18.904;-99.054;2023-03-17T01:06:54;11.57;;;2.30;;
61385;SDS011;47256;18.904;-99.054;2023-03-17T01:09:25;8.25;;;2.58;;
61385;SDS011;47256;18.904;-99.054;2023-03-17T01:11:53;5.93;;;2.30;;
61385;SDS011;47256;18.904;-99.054;2023-03-17T01:14:23;7.80;;;2.00;;
61385;SDS011;47256;18.904;-99.054;2023-03-17T01:16:50;5.90;;;1.95;;
61385;SDS011;47256;18.904;-99.054;2023-03-17T01:19:21;5.55;;;2.50;;
61385;SDS011;47256;18.904;-99.054;2023-03-17T01:21:48;46.33;;;16.05;;
61385;SDS011;47256;18.904;-99.054;2023-03-17T01:24:18;37.00;;;13.55;;
61385;SDS011;47256;18.904;-99.054;2023-03-17T01:26:46;22.58;;;9.85;;
61385;SDS011;47256;18.904;-99.054;2023-03-17T01:29:14;33.92;;;9.82;;
61385;SDS011;47256;18.904;-99.054;2023-03-17T01:31:42;21.63;;;6.50;;
61385;SDS011;47256;18.904;-99.054;2023-03-17T01:34:13;9.35;;;4.47;;
61385;SDS011;47256;18.904;-99.054;2023-03-17T01:36:42;10.63;;;4.28;;
61385;SDS011;47256;18.904;-99.054;2023-03-17T01:39:10;8.15;;;3.45;;
61385;SDS011;47256;18.904;-99.054;2023-03-17T01:41:38;8.77;;;3.10;;
61385;SDS011;47256;18.904;-99.054;2023-03-17T01:44:11;6.03;;;3.45;;
61385;SDS011;47256;18.904;-99.054;2023-03-17T01:46:43;14.55;;;4.15;;
61385;SDS011;47256;18.904;-99.054;2023-03-17T01:51:49;8.23;;;2.67;;
61385;SDS011;47256;18.904;-99.054;2023-03-17T01:54:45;3.92;;;2.00;;
61385;SDS011;47256;18.904;-99.054;2023-03-17T02:00:00;9.50;;;2.85;;
61385;SDS011;47256;18.904;-99.054;2023-03-17T02:02:39;12.70;;;3.45;;
61385;SDS011;47256;18.904;-99.054;2023-03-17T02:05:12;32.58;;;3.85;;
61385;SDS011;47256;18.904;-99.054;2023-03-17T02:10:16;9.85;;;2.40;;
61385;SDS011;47256;18.904;-99.054;2023-03-17T02:12:50;5.85;;;2.97;;
61385;SDS011;47256;18.904;-99.054;2023-03-17T02:15:21;3.58;;;2.53;;
61385;SDS011;47256;18.904;-99.054;2023-03-17T02:17:50;8.35;;;2.30;;
61385;SDS011;47256;18.904;-99.054;2023-03-17T02:22:55;3.97;;;2.45;;
61385;SDS011;47256;18.904;-99.054;2023-03-17T02:25:28;3.35;;;2.42;;
61385;SDS011;47256;18.904;-99.054;2023-03-17T02:27:58;2.75;;;2.45;;
61385;SDS011;47256;18.904;-99.054;2023-03-17T02:31:02;6.75;;;2.00;;
61385;SDS011;47256;18.904;-99.054;2023-03-17T02:33:32;6.93;;;2.28;;
61385;SDS011;47256;18.904;-99.054;2023-03-17T02:36:11;8.25;;;2.03;;
61385;SDS011;47256;18.904;-99.054;2023-03-17T02:38:44;5.70;;;2.10;;
61385;SDS011;47256;18.904;-99.054;2023-03-17T02:41:15;8.05;;;2.88;;
61385;SDS011;47256;18.904;-99.054;2023-03-17T02:43:45;10.70;;;3.42;;
61385;SDS011;47256;18.904;-99.054;2023-03-17T02:46:15;3.75;;;2.10;;
61385;SDS011;47256;18.904;-99.054;2023-03-17T02:48:45;5.82;;;1.90;;
61385;SDS011;47256;18.904;-99.054;2023-03-17T02:51:21;3.90;;;2.60;;
61385;SDS011;47256;18.904;-99.054;2023-03-17T02:53:54;5.85;;;2.78;;
61385;SDS011;47256;18.904;-99.054;2023-03-17T02:56:31;7.28;;;2.75;;
61385;SDS011;47256;18.904;-99.054;2023-03-17T02:59:06;8.85;;;4.25;;
61385;SDS011;47256;18.904;-99.054;2023-03-17T03:01:42;7.82;;;4.40;;
61385;SDS011;47256;18.904;-99.054;2023-03-17T03:04:17;9.80;;;3.53;;
61385;SDS011;47256;18.904;-99.054;2023-03-17T03:06:49;5.68;;;3.40;;
61385;SDS011;47256;18.904;-99.054;2023-03-17T03:09:22;9.13;;;3.63;;
61385;SDS011;47256;18.904;-99.054;2023-03-17T03:15:58;14.90;;;4.60;;
61385;SDS011;47256;18.904;-99.054;2023-03-17T03:21:31;17.63;;;5.13;;
61385;SDS011;47256;18.904;-99.054;2023-03-17T03:24:25;9.85;;;4.72;;
61385;SDS011;47256;18.904;-99.054;2023-03-17T03:26:56;7.38;;;3.90;;
61385;SDS011;47256;18.904;-99.054;2023-03-17T03:29:25;5.05;;;2.90;;
61385;SDS011;47256;18.904;-99.054;2023-03-17T03:31:55;8.60;;;3.45;;
61385;SDS011;47256;18.904;-99.054;2023-03-17T03:37:26;14.52;;;4.57;;
61385;SDS011;47256;18.904;-99.054;2023-03-17T03:39:56;4.68;;;2.97;;
61385;SDS011;47256;18.904;-99.054;2023-03-17T03:42:24;7.63;;;4.13;;
61385;SDS011;47256;18.904;-99.054;2023-03-17T03:44:55;6.40;;;4.10;;
61385;SDS011;47256;18.904;-99.054;2023-03-17T03:47:24;7.00;;;3.05;;
61385;SDS011;47256;18.904;-99.054;2023-03-17T03:49:57;13.63;;;6.72;;
61385;SDS011;47256;18.904;-99.054;2023-03-17T03:52:29;7.53;;;3.65;;
61385;SDS011;47256;18.904;-99.054;2023-03-17T03:55:00;12.13;;;5.25;;
61385;SDS011;47256;18.904;-99.054;2023-03-17T03:57:31;21.63;;;4.85;;
61385;SDS011;47256;18.904;-99.054;2023-03-17T04:00:13;10.88;;;4.30;;
61385;SDS011;47256;18.904;-99.054;2023-03-17T04:02:46;8.05;;;3.55;;
61385;SDS011;47256;18.904;-99.054;2023-03-17T04:05:16;6.03;;;3.15;;
61385;SDS011;47256;18.904;-99.054;2023-03-17T04:07:45;6.75;;;3.45;;
61385;SDS011;47256;18.904;-99.054;2023-03-17T04:10:14;7.40;;;3.58;;
61385;SDS011;47256;18.904;-99.054;2023-03-17T04:12:52;6.40;;;3.72;;
61385;SDS011;47256;18.904;-99.054;2023-03-17T04:15:22;11.25;;;3.88;;
61385;SDS011;47256;18.904;-99.054;2023-03-17T04:17:50;5.40;;;3.15;;
61385;SDS011;47256;18.904;-99.054;2023-03-17T04:20:21;9.35;;;3.22;;
61385;SDS011;47256;18.904;-99.054;2023-03-17T04:22:57;17.75;;;3.05;;
61385;SDS011;47256;18.904;-99.054;2023-03-17T04:25:26;5.93;;;3.50;;
61385;SDS011;47256;18.904;-99.054;2023-03-17T04:27:55;10.55;;;4.03;;
61385;SDS011;47256;18.904;-99.054;2023-03-17T04:30:24;21.60;;;5.72;;
61385;SDS011;47256;18.904;-99.054;2023-03-17T04:32:54;11.05;;;5.13;;
61385;SDS011;47256;18.904;-99.054;2023-03-17T04:35:24;9.02;;;3.88;;
61385;SDS011;47256;18.904;-99.054;2023-03-17T04:37:52;9.18;;;3.80;;
61385;SDS011;47256;18.904;-99.054;2023-03-17T04:40:20;12.10;;;5.22;;
61385;SDS011;47256;18.904;-99.054;2023-03-17T04:42:48;17.90;;;5.82;;
61385;SDS011;47256;18.904;-99.054;2023-03-17T04:45:17;15.32;;;5.15;;
61385;SDS011;47256;18.904;-99.054;2023-03-17T04:47:46;10.73;;;4.68;;
61385;SDS011;47256;18.904;-99.054;2023-03-17T04:50:14;7.55;;;3.40;;
61385;SDS011;47256;18.904;-99.054;2023-03-17T04:52:42;8.95;;;3.50;;
61385;SDS011;47256;18.904;-99.054;2023-03-17T04:55:14;6.95;;;2.90;;
61385;SDS011;47256;18.904;-99.054;2023-03-17T04:57:43;5.63;;;3.65;;
61385;SDS011;47256;18.904;-99.054;2023-03-17T05:00:12;7.00;;;3.90;;
61385;SDS011;47256;18.904;-99.054;2023-03-17T05:02:40;5.93;;;3.15;;
61385;SDS011;47256;18.904;-99.054;2023-03-17T05:05:09;4.97;;;3.28;;
61385;SDS011;47256;18.904;-99.054;2023-03-17T05:07:39;7.28;;;3.35;;
61385;SDS011;47256;18.904;-99.054;2023-03-17T05:10:08;8.65;;;4.45;;
61385;SDS011;47256;18.904;-99.054;2023-03-17T05:12:36;9.13;;;3.08;;
61385;SDS011;47256;18.904;-99.054;2023-03-17T05:15:04;11.98;;;3.67;;
61385;SDS011;47256;18.904;-99.054;2023-03-17T05:17:32;8.40;;;3.63;;
61385;SDS011;47256;18.904;-99.054;2023-03-17T05:19:59;5.15;;;2.67;;
61385;SDS011;47256;18.904;-99.054;2023-03-17T05:22:27;4.03;;;2.53;;
61385;SDS011;47256;18.904;-99.054;2023-03-17T05:24:55;10.60;;;3.05;;
61385;SDS011;47256;18.904;-99.054;2023-03-17T05:27:23;12.65;;;3.15;;
61385;SDS011;47256;18.904;-99.054;2023-03-17T05:29:51;5.93;;;3.28;;
61385;SDS011;47256;18.904;-99.054;2023-03-17T05:32:20;6.45;;;3.63;;
61385;SDS011;47256;18.904;-99.054;2023-03-17T05:34:47;5.78;;;2.95;;
61385;SDS011;47256;18.904;-99.054;2023-03-17T05:37:16;5.10;;;3.28;;
61385;SDS011;47256;18.904;-99.054;2023-03-17T05:39:43;7.50;;;3.95;;
61385;SDS011;47256;18.904;-99.054;2023-03-17T05:42:12;7.40;;;3.80;;
61385;SDS011;47256;18.904;-99.054;2023-03-17T05:44:39;5.47;;;2.85;;
61385;SDS011;47256;18.904;-99.054;2023-03-17T05:47:07;6.97;;;3.58;;
61385;SDS011;47256;18.904;-99.054;2023-03-17T05:49:35;8.43;;;4.00;;
61385;SDS011;47256;18.904;-99.054;2023-03-17T05:52:03;8.70;;;3.20;;
61385;SDS011;47256;18.904;-99.054;2023-03-17T05:54:31;5.43;;;2.75;;
61385;SDS011;47256;18.904;-99.054;2023-03-17T05:56:59;5.65;;;2.85;;
61385;SDS011;47256;18.904;-99.054;2023-03-17T05:59:28;6.22;;;3.70;;
61385;SDS011;47256;18.904;-99.054;2023-03-17T06:01:56;10.05;;;2.88;;
61385;SDS011;47256;18.904;-99.054;2023-03-17T06:04:26;7.55;;;2.85;;
61385;SDS011;47256;18.904;-99.054;2023-03-17T06:06:56;8.52;;;2.65;;
61385;SDS011;47256;18.904;-99.054;2023-03-17T06:09:23;7.53;;;2.90;;
61385;SDS011;47256;18.904;-99.054;2023-03-17T06:11:50;5.63;;;2.60;;
61385;SDS011;47256;18.904;-99.054;2023-03-17T06:14:18;12.95;;;5.70;;
61385;SDS011;47256;18.904;-99.054;2023-03-17T06:16:46;16.63;;;5.03;;
61385;SDS011;47256;18.904;-99.054;2023-03-17T06:19:13;12.07;;;5.38;;
61385;SDS011;47256;18.904;-99.054;2023-03-17T06:21:40;14.55;;;5.78;;
61385;SDS011;47256;18.904;-99.054;2023-03-17T06:24:07;20.27;;;4.88;;
61385;SDS011;47256;18.904;-99.054;2023-03-17T06:26:35;16.63;;;5.47;;
61385;SDS011;47256;18.904;-99.054;2023-03-17T06:29:03;12.93;;;4.38;;
61385;SDS011;47256;18.904;-99.054;2023-03-17T06:31:37;16.45;;;5.13;;
61385;SDS011;47256;18.904;-99.054;2023-03-17T06:34:07;7.93;;;4.20;;
61385;SDS011;47256;18.904;-99.054;2023-03-17T06:36:34;10.43;;;3.38;;
61385;SDS011;47256;18.904;-99.054;2023-03-17T06:39:04;7.70;;;3.55;;
61385;SDS011;47256;18.904;-99.054;2023-03-17T06:41:31;7.80;;;4.43;;
61385;SDS011;47256;18.904;-99.054;2023-03-17T06:44:00;9.80;;;3.78;;
61385;SDS011;47256;18.904;-99.054;2023-03-17T06:46:27;13.68;;;3.72;;
61385;SDS011;47256;18.904;-99.054;2023-03-17T06:48:57;6.32;;;2.80;;
61385;SDS011;47256;18.904;-99.054;2023-03-17T06:51:26;3.63;;;2.45;;
61385;SDS011;47256;18.904;-99.054;2023-03-17T06:53:54;12.65;;;3.78;;
61385;SDS011;47256;18.904;-99.054;2023-03-17T06:56:21;5.00;;;2.95;;
61385;SDS011;47256;18.904;-99.054;2023-03-17T06:58:54;5.65;;;3.25;;
61385;SDS011;47256;18.904;-99.054;2023-03-17T07:01:21;11.77;;;3.50;;
61385;SDS011;47256;18.904;-99.054;2023-03-17T07:03:48;11.85;;;3.70;;
61385;SDS011;47256;18.904;-99.054;2023-03-17T07:06:15;7.10;;;3.40;;
61385;SDS011;47256;18.904;-99.054;2023-03-17T07:08:42;4.93;;;2.90;;
61385;SDS011;47256;18.904;-99.054;2023-03-17T07:11:12;5.43;;;3.28;;
61385;SDS011;47256;18.904;-99.054;2023-03-17T07:13:40;7.70;;;2.90;;
61385;SDS011;47256;18.904;-99.054;2023-03-17T07:16:13;5.13;;;2.72;;
61385;SDS011;47256;18.904;-99.054;2023-03-17T07:18:41;6.72;;;3.30;;
61385;SDS011;47256;18.904;-99.054;2023-03-17T07:21:10;3.67;;;2.35;;
61385;SDS011;47256;18.904;-99.054;2023-03-17T07:23:37;8.98;;;2.83;;
61385;SDS011;47256;18.904;-99.054;2023-03-17T07:26:05;5.43;;;3.42;;
61385;SDS011;47256;18.904;-99.054;2023-03-17T07:28:33;7.40;;;2.92;;
61385;SDS011;47256;18.904;-99.054;2023-03-17T07:31:00;5.20;;;3.33;;
61385;SDS011;47256;18.904;-99.054;2023-03-17T07:33:27;6.03;;;2.65;;
61385;SDS011;47256;18.904;-99.054;2023-03-17T07:36:00;5.13;;;2.90;;
61385;SDS011;47256;18.904;-99.054;2023-03-17T07:38:29;4.57;;;2.97;;
61385;SDS011;47256;18.904;-99.054;2023-03-17T07:40:56;4.93;;;2.75;;
61385;SDS011;47256;18.904;-99.054;2023-03-17T07:43:26;6.65;;;2.55;;
61385;SDS011;47256;18.904;-99.054;2023-03-17T07:45:53;10.25;;;2.30;;
61385;SDS011;47256;18.904;-99.054;2023-03-17T07:48:21;9.98;;;3.33;;
61385;SDS011;47256;18.904;-99.054;2023-03-17T07:50:48;6.90;;;2.67;;
61385;SDS011;47256;18.904;-99.054;2023-03-17T07:53:16;5.78;;;2.60;;
61385;SDS011;47256;18.904;-99.054;2023-03-17T07:55:46;3.67;;;1.95;;
61385;SDS011;47256;18.904;-99.054;2023-03-17T07:58:15;7.32;;;2.70;;
61385;SDS011;47256;18.904;-99.054;2023-03-17T08:00:45;3.45;;;2.25;;
61385;SDS011;47256;18.904;-99.054;2023-03-17T08:03:14;11.65;;;3.65;;
61385;SDS011;47256;18.904;-99.054;2023-03-17T08:05:41;6.95;;;3.25;;
61385;SDS011;47256;18.904;-99.054;2023-03-17T08:08:13;9.25;;;3.60;;
61385;SDS011;47256;18.904;-99.054;2023-03-17T08:10:41;7.80;;;3.17;;
61385;SDS011;47256;18.904;-99.054;2023-03-17T08:13:11;9.30;;;3.28;;
61385;SDS011;47256;18.904;-99.054;2023-03-17T08:15:39;5.25;;;2.75;;
61385;SDS011;47256;18.904;-99.054;2023-03-17T08:18:06;10.00;;;3.17;;
61385;SDS011;47256;18.904;-99.054;2023-03-17T08:20:34;7.05;;;3.00;;
61385;SDS011;47256;18.904;-99.054;2023-03-17T08:23:01;7.13;;;3.85;;
61385;SDS011;47256;18.904;-99.054;2023-03-17T08:25:29;8.10;;;3.55;;
61385;SDS011;47256;18.904;-99.054;2023-03-17T08:27:56;7.38;;;3.00;;
61385;SDS011;47256;18.904;-99.054;2023-03-17T08:30:24;5.90;;;3.13;;
61385;SDS011;47256;18.904;-99.054;2023-03-17T08:32:51;6.18;;;2.85;;
61385;SDS011;47256;18.904;-99.054;2023-03-17T08:35:19;22.55;;;3.60;;
61385;SDS011;47256;18.904;-99.054;2023-03-17T08:37:46;5.60;;;3.63;;
61385;SDS011;47256;18.904;-99.054;2023-03-17T08:40:16;5.05;;;2.45;;
61385;SDS011;47256;18.904;-99.054;2023-03-17T08:42:45;3.58;;;2.83;;
61385;SDS011;47256;18.904;-99.054;2023-03-17T08:45:15;4.72;;;2.67;;
61385;SDS011;47256;18.904;-99.054;2023-03-17T08:47:43;6.07;;;3.17;;
61385;SDS011;47256;18.904;-99.054;2023-03-17T08:50:17;7.63;;;3.05;;
61385;SDS011;47256;18.904;-99.054;2023-03-17T08:52:49;4.45;;;2.63;;
61385;SDS011;47256;18.904;-99.054;2023-03-17T08:55:17;10.48;;;3.08;;
61385;SDS011;47256;18.904;-99.054;2023-03-17T08:57:45;6.97;;;2.53;;
61385;SDS011;47256;18.904;-99.054;2023-03-17T09:00:14;4.90;;;3.20;;
61385;SDS011;47256;18.904;-99.054;2023-03-17T09:02:46;5.85;;;3.38;;
61385;SDS011;47256;18.904;-99.054;2023-03-17T09:05:15;5.22;;;3.30;;
61385;SDS011;47256;18.904;-99.054;2023-03-17T09:07:42;3.90;;;2.78;;
61385;SDS011;47256;18.904;-99.054;2023-03-17T09:10:10;6.10;;;3.28;;
61385;SDS011;47256;18.904;-99.054;2023-03-17T09:12:40;5.30;;;2.90;;
61385;SDS011;47256;18.904;-99.054;2023-03-17T09:15:07;4.18;;;2.65;;
61385;SDS011;47256;18.904;-99.054;2023-03-17T09:17:38;6.53;;;2.55;;
61385;SDS011;47256;18.904;-99.054;2023-03-17T09:20:10;5.88;;;2.55;;
61385;SDS011;47256;18.904;-99.054;2023-03-17T09:22:38;4.70;;;2.72;;
61385;SDS011;47256;18.904;-99.054;2023-03-17T09:25:06;8.55;;;2.92;;
61385;SDS011;47256;18.904;-99.054;2023-03-17T09:27:34;3.42;;;2.13;;
61385;SDS011;47256;18.904;-99.054;2023-03-17T09:30:01;3.08;;;1.80;;
61385;SDS011;47256;18.904;-99.054;2023-03-17T09:32:29;3.05;;;1.92;;
61385;SDS011;47256;18.904;-99.054;2023-03-17T09:34:56;4.90;;;2.40;;
61385;SDS011;47256;18.904;-99.054;2023-03-17T09:37:23;31.80;;;3.45;;
61385;SDS011;47256;18.904;-99.054;2023-03-17T09:39:51;18.65;;;2.95;;
61385;SDS011;47256;18.904;-99.054;2023-03-17T09:51:05;24.10;;;2.78;;
61385;SDS011;47256;18.904;-99.054;2023-03-17T09:56:29;25.35;;;2.42;;
61385;SDS011;47256;18.904;-99.054;2023-03-17T09:59:08;3.72;;;2.00;;
61385;SDS011;47256;18.904;-99.054;2023-03-17T10:01:43;8.73;;;2.08;;
61385;SDS011;47256;18.904;-99.054;2023-03-17T10:04:13;14.50;;;2.47;;
61385;SDS011;47256;18.904;-99.054;2023-03-17T10:06:46;5.50;;;2.65;;
61385;SDS011;47256;18.904;-99.054;2023-03-17T10:09:23;5.47;;;3.00;;
61385;SDS011;47256;18.904;-99.054;2023-03-17T10:12:14;2.58;;;1.98;;
61385;SDS011;47256;18.904;-99.054;2023-03-17T10:15:00;2.05;;;1.63;;
61385;SDS011;47256;18.904;-99.054;2023-03-17T10:17:39;10.02;;;2.05;;
61385;SDS011;47256;18.904;-99.054;2023-03-17T10:20:13;4.63;;;1.88;;
61385;SDS011;47256;18.904;-99.054;2023-03-17T10:22:44;2.97;;;1.80;;
61385;SDS011;47256;18.904;-99.054;2023-03-17T10:25:16;3.65;;;1.85;;
61385;SDS011;47256;18.904;-99.054;2023-03-17T10:27:52;2.95;;;1.80;;
61385;SDS011;47256;18.904;-99.054;2023-03-17T10:30:26;5.05;;;2.35;;
61385;SDS011;47256;18.904;-99.054;2023-03-17T10:33:01;4.40;;;1.98;;
61385;SDS011;47256;18.904;-99.054;2023-03-17T10:35:32;6.30;;;2.80;;
61385;SDS011;47256;18.904;-99.054;2023-03-17T10:38:15;9.85;;;3.13;;
61385;SDS011;47256;18.904;-99.054;2023-03-17T10:40:46;3.55;;;1.95;;
61385;SDS011;47256;18.904;-99.054;2023-03-17T10:43:28;8.40;;;2.05;;
61385;SDS011;47256;18.904;-99.054;2023-03-17T10:46:04;8.15;;;2.38;;
61385;SDS011;47256;18.904;-99.054;2023-03-17T10:48:36;3.58;;;2.42;;
61385;SDS011;47256;18.904;-99.054;2023-03-17T10:51:06;6.30;;;2.97;;
61385;SDS011;47256;18.904;-99.054;2023-03-17T10:53:38;8.40;;;3.28;;
61385;SDS011;47256;18.904;-99.054;2023-03-17T10:56:17;10.70;;;3.40;;
61385;SDS011;47256;18.904;-99.054;2023-03-17T10:58:51;10.02;;;2.40;;
61385;SDS011;47256;18.904;-99.054;2023-03-17T11:01:21;4.55;;;2.30;;
61385;SDS011;47256;18.904;-99.054;2023-03-17T11:04:01;3.33;;;2.28;;
61385;SDS011;47256;18.904;-99.054;2023-03-17T11:06:44;4.15;;;2.28;;
61385;SDS011;47256;18.904;-99.054;2023-03-17T11:09:19;2.95;;;2.03;;
61385;SDS011;47256;18.904;-99.054;2023-03-17T11:11:47;3.63;;;2.30;;
61385;SDS011;47256;18.904;-99.054;2023-03-17T11:14:26;4.55;;;2.53;;
61385;SDS011;47256;18.904;-99.054;2023-03-17T11:16:55;8.77;;;2.53;;
61385;SDS011;47256;18.904;-99.054;2023-03-17T11:19:36;4.68;;;2.17;;
61385;SDS011;47256;18.904;-99.054;2023-03-17T11:25:15;16.83;;;4.13;;
61385;SDS011;47256;18.904;-99.054;2023-03-17T11:32:53;14.48;;;6.63;;
61385;SDS011;47256;18.904;-99.054;2023-03-17T11:38:21;4.60;;;2.53;;
61385;SDS011;47256;18.904;-99.054;2023-03-17T11:49:20;7.68;;;2.95;;
61385;SDS011;47256;18.904;-99.054;2023-03-17T11:57:34;16.60;;;2.58;;
61385;SDS011;47256;18.904;-99.054;2023-03-17T12:00:24;8.02;;;2.25;;
61385;SDS011;47256;18.904;-99.054;2023-03-17T12:05:45;4.47;;;3.03;;
61385;SDS011;47256;18.904;-99.054;2023-03-17T12:08:23;3.47;;;2.50;;
61385;SDS011;47256;18.904;-99.054;2023-03-17T12:11:23;6.10;;;2.15;;
61385;SDS011;47256;18.904;-99.054;2023-03-17T12:13:59;10.82;;;2.92;;
61385;SDS011;47256;18.904;-99.054;2023-03-17T12:16:37;4.15;;;2.15;;
61385;SDS011;47256;18.904;-99.054;2023-03-17T12:21:54;12.05;;;2.53;;
61385;SDS011;47256;18.904;-99.054;2023-03-17T12:24:36;8.80;;;2.20;;
61385;SDS011;47256;18.904;-99.054;2023-03-17T12:27:21;7.32;;;2.08;;
61385;SDS011;47256;18.904;-99.054;2023-03-17T12:29:58;11.70;;;3.10;;
61385;SDS011;47256;18.904;-99.054;2023-03-17T12:32:59;3.60;;;2.05;;
61385;SDS011;47256;18.904;-99.054;2023-03-17T12:35:52;7.10;;;1.97;;
61385;SDS011;47256;18.904;-99.054;2023-03-17T12:38:24;4.65;;;2.38;;
61385;SDS011;47256;18.904;-99.054;2023-03-17T12:50:08;7.88;;;2.70;;
61385;SDS011;47256;18.904;-99.054;2023-03-17T12:53:25;23.08;;;4.72;;
61385;SDS011;47256;18.904;-99.054;2023-03-17T12:56:03;12.55;;;2.63;;
61385;SDS011;47256;18.904;-99.054;2023-03-17T12:58:38;22.15;;;4.15;;
61385;SDS011;47256;18.904;-99.054;2023-03-17T13:01:23;17.17;;;4.22;;
61385;SDS011;47256;18.904;-99.054;2023-03-17T13:04:31;13.57;;;4.72;;
61385;SDS011;47256;18.904;-99.054;2023-03-17T13:07:10;20.15;;;5.28;;
61385;SDS011;47256;18.904;-99.054;2023-03-17T13:23:33;52.95;;;19.38;;
61385;SDS011;47256;18.904;-99.054;2023-03-17T13:26:05;53.95;;;17.45;;
61385;SDS011;47256;18.904;-99.054;2023-03-17T13:33:58;34.55;;;8.68;;
61385;SDS011;47256;18.904;-99.054;2023-03-17T13:50:58;28.83;;;8.43;;
61385;SDS011;47256;18.904;-99.054;2023-03-17T13:53:28;17.80;;;7.57;;
61385;SDS011;47256;18.904;-99.054;2023-03-17T13:56:15;22.48;;;7.00;;
61385;SDS011;47256;18.904;-99.054;2023-03-17T13:58:54;13.25;;;7.18;;
61385;SDS011;47256;18.904;-99.054;2023-03-17T14:01:34;18.92;;;7.57;;
61385;SDS011;47256;18.904;-99.054;2023-03-17T14:04:34;23.92;;;7.70;;
61385;SDS011;47256;18.904;-99.054;2023-03-17T14:07:14;11.32;;;5.32;;
61385;SDS011;47256;18.904;-99.054;2023-03-17T14:09:51;15.70;;;7.63;;
61385;SDS011;47256;18.904;-99.054;2023-03-17T14:15:11;30.85;;;11.35;;
61385;SDS011;47256;18.904;-99.054;2023-03-17T14:17:48;27.75;;;11.05;;
61385;SDS011;47256;18.904;-99.054;2023-03-17T14:20:21;29.58;;;11.30;;
61385;SDS011;47256;18.904;-99.054;2023-03-17T14:22:53;28.83;;;8.50;;
61385;SDS011;47256;18.904;-99.054;2023-03-17T14:25:23;30.15;;;9.70;;
61385;SDS011;47256;18.904;-99.054;2023-03-17T14:27:56;20.65;;;9.10;;
61385;SDS011;47256;18.904;-99.054;2023-03-17T14:30:25;31.60;;;11.88;;
61385;SDS011;47256;18.904;-99.054;2023-03-17T14:33:19;29.77;;;9.57;;
61385;SDS011;47256;18.904;-99.054;2023-03-17T14:36:08;23.55;;;8.68;;
61385;SDS011;47256;18.904;-99.054;2023-03-17T14:38:54;18.27;;;7.28;;
61385;SDS011;47256;18.904;-99.054;2023-03-17T14:41:23;20.10;;;6.88;;
61385;SDS011;47256;18.904;-99.054;2023-03-17T14:43:58;29.05;;;8.05;;
61385;SDS011;47256;18.904;-99.054;2023-03-17T14:49:01;14.95;;;6.13;;
61385;SDS011;47256;18.904;-99.054;2023-03-17T14:51:37;18.33;;;6.15;;
61385;SDS011;47256;18.904;-99.054;2023-03-17T14:54:18;19.92;;;6.43;;
61385;SDS011;47256;18.904;-99.054;2023-03-17T14:56:59;19.58;;;6.20;;
61385;SDS011;47256;18.904;-99.054;2023-03-17T14:59:33;11.05;;;4.85;;
61385;SDS011;47256;18.904;-99.054;2023-03-17T15:02:51;8.25;;;4.57;;
61385;SDS011;47256;18.904;-99.054;2023-03-17T15:08:01;7.45;;;3.20;;
61385;SDS011;47256;18.904;-99.054;2023-03-17T15:10:52;10.95;;;3.35;;
61385;SDS011;47256;18.904;-99.054;2023-03-17T15:13:26;10.27;;;3.83;;
61385;SDS011;47256;18.904;-99.054;2023-03-17T15:15:56;5.93;;;3.00;;
61385;SDS011;47256;18.904;-99.054;2023-03-17T15:18:28;17.40;;;3.33;;
61385;SDS011;47256;18.904;-99.054;2023-03-17T15:20:56;8.50;;;3.80;;
61385;SDS011;47256;18.904;-99.054;2023-03-17T15:23:27;6.05;;;2.55;;
61385;SDS011;47256;18.904;-99.054;2023-03-17T15:25:56;18.45;;;3.30;;
61385;SDS011;47256;18.904;-99.054;2023-03-17T15:28:26;6.78;;;4.00;;
61385;SDS011;47256;18.904;-99.054;2023-03-17T15:30:58;6.95;;;3.83;;
61385;SDS011;47256;18.904;-99.054;2023-03-17T15:33:38;11.48;;;4.32;;
61385;SDS011;47256;18.904;-99.054;2023-03-17T15:36:13;11.77;;;5.25;;
61385;SDS011;47256;18.904;-99.054;2023-03-17T15:38:43;7.75;;;4.65;;
61385;SDS011;47256;18.904;-99.054;2023-03-17T15:41:10;9.52;;;4.63;;
61385;SDS011;47256;18.904;-99.054;2023-03-17T15:43:39;7.70;;;3.42;;
61385;SDS011;47256;18.904;-99.054;2023-03-17T15:46:09;7.63;;;3.97;;
61385;SDS011;47256;18.904;-99.054;2023-03-17T15:49:00;8.55;;;4.10;;
61385;SDS011;47256;18.904;-99.054;2023-03-17T15:51:35;4.40;;;3.13;;
61385;SDS011;47256;18.904;-99.054;2023-03-17T15:54:02;6.28;;;3.78;;
61385;SDS011;47256;18.904;-99.054;2023-03-17T15:56:32;4.82;;;3.00;;
61385;SDS011;47256;18.904;-99.054;2023-03-17T15:59:00;23.92;;;6.10;;
61385;SDS011;47256;18.904;-99.054;2023-03-17T16:01:27;8.50;;;4.53;;
61385;SDS011;47256;18.904;-99.054;2023-03-17T16:03:54;6.88;;;3.42;;
61385;SDS011;47256;18.904;-99.054;2023-03-17T16:06:22;5.80;;;2.95;;
61385;SDS011;47256;18.904;-99.054;2023-03-17T16:08:50;3.78;;;2.85;;
61385;SDS011;47256;18.904;-99.054;2023-03-17T16:11:21;9.32;;;3.28;;
61385;SDS011;47256;18.904;-99.054;2023-03-17T16:18:55;6.13;;;4.28;;
61385;SDS011;47256;18.904;-99.054;2023-03-17T16:21:24;4.10;;;2.45;;
61385;SDS011;47256;18.904;-99.054;2023-03-17T16:23:52;41.50;;;12.88;;
61385;SDS011;47256;18.904;-99.054;2023-03-17T16:26:20;10.07;;;5.07;;
61385;SDS011;47256;18.904;-99.054;2023-03-17T16:28:48;4.07;;;2.55;;
61385;SDS011;47256;18.904;-99.054;2023-03-17T16:31:17;5.43;;;1.55;;
61385;SDS011;47256;18.904;-99.054;2023-03-17T16:33:52;4.95;;;2.58;;
61385;SDS011;47256;18.904;-99.054;2023-03-17T16:36:20;11.15;;;3.03;;
61385;SDS011;47256;18.904;-99.054;2023-03-17T16:38:48;6.25;;;3.35;;
61385;SDS011;47256;18.904;-99.054;2023-03-17T16:41:17;4.35;;;2.65;;
61385;SDS011;47256;18.904;-99.054;2023-03-17T16:43:57;11.30;;;2.75;;
61385;SDS011;47256;18.904;-99.054;2023-03-17T16:46:30;7.82;;;3.80;;